Latest Weather Observations for Cabramurra

IDN60901

Issued at 1:31 pm EST Wednesday 27 July 2016 (issued every 10 minutes, with the page automatically refreshed every 10 minutes)

About weather observations | Map of Canberra area stations | Latest observations for Canberra area | Other Formats
Station Details ID: 072161 Name: CABRAMURRA SMHEA AWS Lat: -35.94 Lon: 148.38 Height: 1482.4 m
Data from the previous 72 hours. | See also: Recent months at Cabramurra
Date/Time
EST
Temp
°C
App
Temp
°C
Dew
Point
°C
Rel
Hum
%
Delta-T
°C
Wind Press
QNH
hPa
Press
MSL
hPa
Rain since
9am
mm
Dir  Spd
km/h
Gust
km/h
Spd
kts
Gust
kts
27/01:30pm 0.0 -4.8 0.0 100 0.0 W 15 32 8 17 - - 2.2
27/01:00pm 0.0 -4.5 0.0 100 0.0 W 13 26 7 14 - - 2.0
27/12:30pm -0.1 -5.3 -0.1 100 0.0 W 17 30 9 16 - - 2.0
27/12:00pm -0.1 -5.7 -0.1 100 0.0 W 19 32 10 17 - - 1.8
27/11:30am -0.1 -5.3 -0.1 100 0.0 W 17 26 9 14 - - 1.8
27/11:00am -0.1 -5.9 -0.1 100 0.0 W 20 33 11 18 - - 1.8
27/10:30am -0.2 -5.4 -0.2 100 0.0 W 17 20 9 11 - - 1.8
27/10:00am -0.2 -5.4 -0.2 100 0.0 W 17 22 9 12 - - 1.4
27/09:30am -0.2 -5.4 -0.2 100 0.0 W 17 24 9 13 - - 0.8
27/09:00am -0.3 -5.9 -0.3 100 0.0 W 19 26 10 14 - - 0.2
27/08:30am -0.4 -6.6 -0.4 100 0.0 W 22 30 12 16 - - 0.2
27/08:00am -0.5 -7.9 -0.5 100 0.0 W 28 37 15 20 - - 0.0
27/07:30am -0.5 -7.5 -0.5 100 0.0 W 26 37 14 20 - - 0.0
27/07:00am -0.2 -7.2 -0.2 100 0.0 WNW 26 35 14 19 - - 0.0
27/06:30am -0.5 -6.7 -0.5 100 0.0 NW 22 39 12 21 - - 0.0
27/06:00am -0.8 -7.1 -0.8 100 0.0 NW 22 30 12 16 - - 0.0
27/05:30am -1.3 -6.7 -1.3 100 0.0 NNW 17 20 9 11 - - 0.0
27/05:00am -1.5 -6.5 -1.5 100 0.0 NNW 15 20 8 11 - - 0.0
27/04:30am -1.4 -7.2 -1.4 100 0.0 NNW 19 28 10 15 - - 0.0
27/04:00am -1.3 -7.1 -1.3 100 0.0 NW 19 24 10 13 - - 0.0
27/03:30am -1.2 -7.0 -1.2 100 0.0 NNW 19 24 10 13 - - 0.0
27/03:00am -1.0 -6.9 -1.0 100 0.0 NNW 20 30 11 16 - - 0.0
27/02:30am -0.9 -7.2 -0.9 100 0.0 NW 22 32 12 17 - - 0.0
27/02:00am -1.2 -7.2 -1.2 100 0.0 NNW 20 32 11 17 - - 0.0
27/01:30am -1.5 -7.3 -1.5 100 0.0 NW 19 28 10 15 - - 0.0
27/01:00am -1.7 -7.5 -1.8 99 0.0 NW 19 26 10 14 - - 0.0
27/12:30am -2.0 -8.1 -2.1 99 -0.1 NW 20 30 11 16 - - 0.0
27/12:00am -2.0 -6.7 -2.1 99 -0.1 NW 13 20 7 11 - - 0.0
 
Date/Time
EST
Temp
°C
App
Temp
°C
Dew
Point
°C
Rel
Hum
%
Delta-T
°C
Wind Press
QNH
hPa
Press
MSL
hPa
Rain since
9am
mm
Dir  Spd
km/h
Gust
km/h
Spd
kts
Gust
kts
26/11:30pm -1.9 -8.0 -2.0 99 -0.1 NW 20 30 11 16 - - 0.0
26/11:00pm -1.9 -7.8 -2.0 99 -0.1 WNW 19 26 10 14 - - 0.0
26/10:30pm -2.0 -7.1 -2.1 99 -0.1 NW 15 20 8 11 - - 0.0
26/10:00pm -2.1 -7.2 -2.2 99 -0.1 NW 15 20 8 11 - - 0.0
26/09:30pm -2.1 -7.2 -2.2 99 -0.1 NW 15 20 8 11 - - 0.0
26/09:00pm -2.2 -8.1 -2.3 99 -0.1 NW 19 24 10 13 - - 0.0
26/08:30pm -1.9 -8.0 -2.0 99 -0.1 WNW 20 33 11 18 - - 0.0
26/08:00pm -1.8 -7.7 -1.9 99 -0.1 WNW 19 26 10 14 - - 0.0
26/07:30pm -1.9 -8.0 -2.0 99 -0.1 NW 20 26 11 14 - - 0.0
26/07:00pm -2.0 -8.5 -2.1 99 -0.1 NW 22 30 12 16 - - 0.0
26/06:30pm -1.9 -8.3 -2.0 99 -0.1 WNW 22 32 12 17 - - 0.0
26/06:00pm -1.8 -8.2 -1.9 99 -0.1 WNW 22 32 12 17 - - 0.0
26/05:30pm -1.9 -8.3 -1.9 100 0.0 WNW 22 30 12 16 - - 0.0
26/05:00pm -1.9 -8.7 -2.0 99 -0.1 WNW 24 33 13 18 - - 0.0
26/04:30pm -1.8 -9.4 -1.9 99 -0.1 W 28 39 15 21 - - 0.0
26/04:00pm -1.7 -8.9 -1.7 100 0.0 WNW 26 37 14 20 - - 0.0
26/03:30pm -1.7 -9.2 -1.7 100 0.0 WNW 28 35 15 19 - - 0.0
26/03:00pm -1.5 -8.6 -1.5 100 0.0 WNW 26 35 14 19 - - 0.0
26/02:30pm -1.5 -8.3 -1.5 100 0.0 WNW 24 32 13 17 - - 0.0
26/02:00pm -1.6 -9.5 -1.6 100 0.0 WNW 30 41 16 22 - - 0.0
26/01:30pm -1.6 -8.7 -1.6 100 0.0 NW 26 43 14 23 - - 0.0
26/01:00pm -1.6 -8.4 -1.7 99 0.0 NW 24 35 13 19 - - 0.0
26/12:30pm -1.9 -9.9 -2.0 99 -0.1 NW 30 39 16 21 - - 0.0
26/12:00pm -1.8 -8.2 -1.9 99 -0.1 NW 22 30 12 16 - - 0.0
26/11:30am -2.0 -8.5 -2.1 99 -0.1 NW 22 32 12 17 - - 0.0
26/11:00am -2.4 -9.7 -2.5 99 -0.1 NW 26 39 14 21 - - 0.0
26/10:30am -2.6 -9.5 -2.7 99 -0.1 NW 24 35 13 19 - - 0.0
26/10:00am -2.7 -9.6 -2.8 99 -0.1 NW 24 37 13 20 - - 0.0
26/09:30am -2.8 -9.7 -2.9 99 -0.1 NW 24 30 13 16 - - 0.0
26/09:00am -2.9 -9.8 -3.0 99 -0.1 NW 24 32 13 17 - - 8.4
26/08:30am -3.2 -10.6 -3.3 99 -0.1 NW 26 35 14 19 - - 8.4
26/08:00am -3.2 -10.2 -3.3 99 -0.1 NW 24 33 13 18 - - 8.4
26/07:30am -3.2 -10.9 -3.3 99 -0.1 NW 28 37 15 20 - - 8.4
26/07:00am -3.2 -10.6 -3.3 99 -0.1 NW 26 41 14 22 - - 8.4
26/06:30am -2.9 -11.4 -3.0 99 -0.1 NW 32 44 17 24 - - 8.4
26/06:00am -2.8 -10.5 -2.9 99 -0.1 NW 28 41 15 22 - - 8.4
26/05:30am -2.9 -10.6 -3.0 99 -0.1 NW 28 41 15 22 - - 8.4
26/05:02am -2.8 -10.9 -2.9 99 -0.1 NW 30 50 16 27 - - 8.4
26/05:00am -2.7 -10.4 -2.8 99 -0.1 NW 28 41 15 22 - - 8.4
26/04:50am -2.6 -10.3 -2.7 99 -0.1 NW 28 46 15 25 - - 8.4
26/04:30am -2.6 -10.6 -2.7 99 -0.1 NW 30 43 16 23 - - 8.4
26/04:00am -2.2 -10.2 -2.2 100 0.0 NW 30 41 16 22 - - 8.4
26/03:46am -2.2 -11.1 -2.2 100 0.0 NW 35 59 19 32 - - 8.4
26/03:30am -1.9 -10.2 -1.9 100 0.0 NW 32 48 17 26 - - 8.4
26/03:00am -0.8 -10.3 -0.8 100 0.0 NW 39 59 21 32 - - 8.2
26/02:48am -0.6 -8.7 -0.6 100 0.0 NW 32 54 17 29 - - 7.8
26/02:30am -0.5 -9.2 -0.5 100 0.0 NW 35 48 19 26 - - 7.4
26/02:09am -0.5 -8.6 -0.5 100 0.0 NW 32 52 17 28 - - 7.0
26/02:00am -0.5 -8.8 -0.5 100 0.0 NW 33 46 18 25 - - 6.8
26/01:32am -0.4 -8.7 -0.4 100 0.0 NW 33 52 18 28 - - 6.4
26/01:30am -0.4 -8.5 -0.4 100 0.0 NW 32 48 17 26 - - 6.4
26/01:00am -0.5 -8.8 -0.5 100 0.0 NW 33 56 18 30 - - 5.8
26/12:54am -0.5 -8.8 -0.5 100 0.0 NW 33 52 18 28 - - 5.8
26/12:30am -0.4 -7.8 -0.4 100 0.0 NW 28 43 15 23 - - 5.6
26/12:00am -0.4 -7.8 -0.4 100 0.0 NW 28 50 15 27 - - 5.2
 
Date/Time
EST
Temp
°C
App
Temp
°C
Dew
Point
°C
Rel
Hum
%
Delta-T
°C
Wind Press
QNH
hPa
Press
MSL
hPa
Rain since
9am
mm
Dir  Spd
km/h
Gust
km/h
Spd
kts
Gust
kts
25/11:54pm -0.4 -7.8 -0.4 100 0.0 NW 28 50 15 27 - - 5.2
25/11:30pm -0.5 -6.7 -0.5 100 0.0 NW 22 33 12 18 - - 4.8
25/11:00pm -0.6 -6.5 -0.6 100 0.0 NW 20 28 11 15 - - 4.6
25/10:30pm -0.7 -6.4 -0.7 100 0.0 NW 19 26 10 14 - - 3.8
25/10:00pm -0.8 -8.2 -0.8 100 0.0 NW 28 39 15 21 - - 2.8
25/09:30pm -0.9 -7.6 -0.9 100 0.0 NW 24 35 13 19 - - 2.8
25/09:09pm -0.8 -8.6 -0.8 100 0.0 NW 30 48 16 26 - - 2.8
25/09:00pm -0.8 -9.2 -0.8 100 0.0 NW 33 46 18 25 - - 2.8
25/08:37pm -1.0 -9.2 -1.0 100 0.0 NW 32 50 17 27 - - 2.6
25/08:30pm -1.0 -8.4 -1.0 100 0.0 NW 28 50 15 27 - - 2.6
25/08:29pm -0.9 -8.3 -0.9 100 0.0 NNW 28 50 15 27 - - 2.4
25/08:00pm -0.9 -7.6 -0.9 100 0.0 NNW 24 37 13 20 - - 2.0
25/07:30pm -0.9 -6.8 -0.9 100 0.0 NNW 20 33 11 18 - - 1.4
25/07:00pm -0.7 -7.7 -0.7 100 0.0 NW 26 37 14 20 - - 1.4
25/06:30pm 0.0 -8.1 0.0 100 0.0 WNW 32 50 17 27 - - 1.2
25/06:13pm 0.0 -7.7 0.0 100 0.0 NW 30 48 16 26 - - 1.0
25/06:00pm 0.0 -8.1 0.0 100 0.0 NW 32 44 17 24 - - 1.0
25/05:30pm 0.0 -7.7 0.0 100 0.0 WNW 30 41 16 22 - - 0.8
25/05:22pm 0.0 -7.3 0.0 100 0.0 NW 28 41 15 22 - - 0.8
25/05:00pm 0.0 -4.8 0.0 100 0.0 WNW 15 17 8 9 - - 0.8
25/04:30pm 0.0 -4.8 0.0 100 0.0 WNW 15 17 8 9 - - 0.4
25/04:00pm -0.1 -4.9 -0.1 100 0.0 NW 15 17 8 9 - - 0.2
25/03:30pm -0.1 -5.3 -0.1 100 0.0 NW 17 28 9 15 - - 0.2
25/03:00pm -0.1 -5.7 -0.1 100 0.0 NW 19 26 10 14 - - 0.0
25/02:30pm -0.2 -6.0 -0.2 100 0.0 NW 20 28 11 15 - - 0.0
25/02:00pm -0.4 -6.6 -0.4 100 0.0 NW 22 30 12 16 - - 0.0
25/01:30pm -0.5 -6.2 -0.5 100 0.0 NW 19 26 10 14 - - 0.0
25/01:00pm -0.8 -6.5 -0.8 100 0.0 NW 19 26 10 14 - - 0.0
25/12:30pm -0.8 -6.5 -0.8 100 0.0 NW 19 24 10 13 - - 0.0
25/12:00pm -0.8 -6.7 -0.8 100 0.0 NW 20 28 11 15 - - 0.0
25/11:30am -0.8 -6.5 -0.8 100 0.0 NW 19 28 10 15 - - 0.0
25/11:00am -0.7 -5.6 -0.7 100 0.0 NW 15 20 8 11 - - 0.0
25/10:30am -1.0 -6.9 -1.0 100 0.0 NW 20 26 11 14 - - 0.0
25/10:00am -0.9 -6.6 -0.9 100 0.0 NW 19 26 10 14 - - 0.0
25/09:30am -1.0 -6.4 -1.0 100 0.0 NW 17 24 9 13 - - 0.0
25/09:00am -1.2 -7.5 -1.2 100 0.0 NW 22 30 12 16 - - 0.0
25/08:30am -1.4 -7.8 -1.4 100 0.0 NW 22 32 12 17 - - 0.0
25/08:00am -1.4 -7.4 -1.4 100 0.0 NW 20 26 11 14 - - 0.0
25/07:30am -1.8 -7.3 -1.9 99 -0.1 NW 17 24 9 13 - - 0.0
25/07:00am -2.2 -7.7 -2.3 99 -0.1 NW 17 20 9 11 - - 0.0
25/06:30am -2.4 -7.2 -2.5 99 -0.1 NW 13 19 7 10 - - 0.0
25/06:00am -2.4 -7.6 -2.5 99 -0.1 NW 15 20 8 11 - - 0.0
25/05:30am -2.3 -7.1 -2.4 99 -0.1 NW 13 19 7 10 - - 0.0
25/05:00am -2.4 -7.6 -2.5 99 -0.1 NW 15 20 8 11 - - 0.0
25/04:30am -2.5 -8.1 -2.6 99 -0.1 NW 17 20 9 11 - - 0.0
25/04:00am -2.3 -7.8 -2.4 99 -0.1 NW 17 26 9 14 - - 0.0
25/03:30am -2.2 -7.7 -2.3 99 -0.1 NW 17 24 9 13 - - 0.0
25/03:00am -2.1 -8.2 -2.2 99 -0.1 NW 20 28 11 15 - - 0.0
25/02:30am -2.0 -7.9 -2.1 99 -0.1 NW 19 28 10 15 - - 0.0
25/02:00am -2.0 -8.5 -2.1 99 -0.1 NW 22 30 12 16 - - 0.0
25/01:30am -2.0 -8.1 -2.1 99 -0.1 NW 20 30 11 16 - - 0.0
25/01:00am -1.7 -8.9 -1.7 100 0.0 NW 26 39 14 21 - - 0.0
25/12:30am -1.6 -8.0 -1.6 100 0.0 NW 22 32 12 17 - - 0.0
25/12:00am -1.7 -7.5 -1.7 100 0.0 NW 19 24 10 13 - - 0.0
 
Date/Time
EST
Temp
°C
App
Temp
°C
Dew
Point
°C
Rel
Hum
%
Delta-T
°C
Wind Press
QNH
hPa
Press
MSL
hPa
Rain since
9am
mm
Dir  Spd
km/h
Gust
km/h
Spd
kts
Gust
kts
24/11:30pm -1.5 -6.5 -1.5 100 0.0 NW 15 19 8 10 - - 0.0
24/11:00pm -1.3 -6.7 -1.3 100 0.0 NW 17 26 9 14 - - 0.0
24/10:30pm -1.0 -6.0 -1.0 100 0.0 NW 15 20 8 11 - - 0.0
24/10:00pm -1.1 -6.5 -1.1 100 0.0 NW 17 24 9 13 - - 0.0
24/09:30pm -1.3 -6.7 -1.3 100 0.0 NW 17 22 9 12 - - 0.0
24/09:00pm -1.3 -7.1 -1.4 99 0.0 NW 19 30 10 16 - - 0.0
24/08:30pm -1.9 -7.4 -2.0 99 -0.1 NW 17 24 9 13 - - 0.0
24/08:00pm -1.7 -8.1 -1.8 99 0.0 NW 22 30 12 16 - - 0.0
24/07:30pm -1.8 -6.9 -1.9 99 -0.1 NW 15 20 8 11 - - 0.0
24/07:00pm -1.6 -7.4 -1.7 99 0.0 NW 19 24 10 13 - - 0.0
24/06:30pm -2.0 -7.1 -2.1 99 -0.1 NW 15 22 8 12 - - 0.0
24/06:00pm -2.2 -7.3 -2.3 99 -0.1 NW 15 19 8 10 - - 0.0
24/05:30pm -2.4 -7.6 -2.5 99 -0.1 NW 15 19 8 10 - - 0.0
24/05:00pm -2.4 -7.6 -2.5 99 -0.1 NW 15 20 8 11 - - 0.0
24/04:30pm -2.2 -7.0 -2.3 99 -0.1 NW 13 17 7 9 - - 0.0
24/04:00pm -2.3 -7.5 -2.4 99 -0.1 NW 15 19 8 10 - - 0.0
24/03:30pm -2.4 -8.5 -2.5 99 -0.1 NW 20 28 11 15 - - 0.0
24/03:00pm -2.3 -8.2 -2.4 99 -0.1 NW 19 22 10 12 - - 0.0
24/02:30pm -2.1 -7.2 -2.2 99 -0.1 NW 15 19 8 10 - - 0.0
24/02:00pm -2.1 -7.2 -2.2 99 -0.1 NW 15 19 8 10 - - 0.0

Latest Capital City Observations: Canberra | Sydney | Melbourne | Brisbane | Adelaide | Perth | Hobart | Darwin

Other Formats:

Comma delimited format used in spreadsheet applications
http://www.bom.gov.au/fwo/IDN60903/IDN60903.95916.axf

JavaScript Object Notation format (JSON) in row-major order
http://www.bom.gov.au/fwo/IDN60903/IDN60903.95916.json